sensor_id;sensor_type;location;lat;lon;timestamp;P1;durP1;ratioP1;P2;durP2;ratioP2
21661;SDS011;10992;48.170;8.596;2023-05-27T00:01:16;9.32;;;6.03;;
21661;SDS011;10992;48.170;8.596;2023-05-27T00:03:47;10.38;;;5.80;;
21661;SDS011;10992;48.170;8.596;2023-05-27T00:06:14;10.10;;;5.80;;
21661;SDS011;10992;48.170;8.596;2023-05-27T00:08:42;8.60;;;6.07;;
21661;SDS011;10992;48.170;8.596;2023-05-27T00:11:09;10.27;;;6.55;;
21661;SDS011;10992;48.170;8.596;2023-05-27T00:13:36;8.25;;;6.03;;
21661;SDS011;10992;48.170;8.596;2023-05-27T00:16:03;13.15;;;6.97;;
21661;SDS011;10992;48.170;8.596;2023-05-27T00:18:30;9.15;;;6.15;;
21661;SDS011;10992;48.170;8.596;2023-05-27T00:20:59;10.13;;;5.88;;
21661;SDS011;10992;48.170;8.596;2023-05-27T00:23:26;12.20;;;6.90;;
21661;SDS011;10992;48.170;8.596;2023-05-27T00:25:53;9.98;;;6.82;;
21661;SDS011;10992;48.170;8.596;2023-05-27T00:28:20;12.52;;;6.43;;
21661;SDS011;10992;48.170;8.596;2023-05-27T00:30:47;12.52;;;6.90;;
21661;SDS011;10992;48.170;8.596;2023-05-27T00:33:15;10.65;;;6.10;;
21661;SDS011;10992;48.170;8.596;2023-05-27T00:35:42;10.23;;;6.20;;
21661;SDS011;10992;48.170;8.596;2023-05-27T00:38:09;8.23;;;5.80;;
21661;SDS011;10992;48.170;8.596;2023-05-27T00:40:36;8.05;;;5.72;;
21661;SDS011;10992;48.170;8.596;2023-05-27T00:43:05;9.57;;;6.40;;
21661;SDS011;10992;48.170;8.596;2023-05-27T00:45:32;11.35;;;7.20;;
21661;SDS011;10992;48.170;8.596;2023-05-27T00:47:59;10.02;;;7.10;;
21661;SDS011;10992;48.170;8.596;2023-05-27T00:50:29;9.32;;;6.30;;
21661;SDS011;10992;48.170;8.596;2023-05-27T00:52:56;11.02;;;7.07;;
21661;SDS011;10992;48.170;8.596;2023-05-27T00:55:24;10.25;;;7.25;;
21661;SDS011;10992;48.170;8.596;2023-05-27T00:57:51;10.20;;;6.40;;
21661;SDS011;10992;48.170;8.596;2023-05-27T01:00:21;8.30;;;6.10;;
21661;SDS011;10992;48.170;8.596;2023-05-27T01:02:48;11.13;;;6.45;;
21661;SDS011;10992;48.170;8.596;2023-05-27T01:05:17;9.90;;;6.55;;
21661;SDS011;10992;48.170;8.596;2023-05-27T01:10:56;11.80;;;6.90;;
21661;SDS011;10992;48.170;8.596;2023-05-27T01:15:50;12.18;;;6.88;;
21661;SDS011;10992;48.170;8.596;2023-05-27T01:18:21;12.52;;;7.35;;
21661;SDS011;10992;48.170;8.596;2023-05-27T01:20:51;7.63;;;5.32;;
21661;SDS011;10992;48.170;8.596;2023-05-27T01:23:19;12.93;;;7.00;;
21661;SDS011;10992;48.170;8.596;2023-05-27T01:25:46;15.15;;;7.07;;
21661;SDS011;10992;48.170;8.596;2023-05-27T01:28:14;11.55;;;6.97;;
21661;SDS011;10992;48.170;8.596;2023-05-27T01:30:42;10.68;;;6.95;;
21661;SDS011;10992;48.170;8.596;2023-05-27T01:33:09;11.75;;;6.82;;
21661;SDS011;10992;48.170;8.596;2023-05-27T01:35:46;9.10;;;6.55;;
21661;SDS011;10992;48.170;8.596;2023-05-27T01:38:22;11.45;;;7.38;;
21661;SDS011;10992;48.170;8.596;2023-05-27T01:40:52;9.63;;;7.10;;
21661;SDS011;10992;48.170;8.596;2023-05-27T01:43:21;11.82;;;7.10;;
21661;SDS011;10992;48.170;8.596;2023-05-27T01:45:48;13.38;;;6.85;;
21661;SDS011;10992;48.170;8.596;2023-05-27T01:48:16;10.60;;;6.70;;
21661;SDS011;10992;48.170;8.596;2023-05-27T01:50:43;9.40;;;6.68;;
21661;SDS011;10992;48.170;8.596;2023-05-27T01:53:11;11.45;;;6.20;;
21661;SDS011;10992;48.170;8.596;2023-05-27T01:55:39;12.65;;;6.68;;
21661;SDS011;10992;48.170;8.596;2023-05-27T01:58:05;12.45;;;6.65;;
21661;SDS011;10992;48.170;8.596;2023-05-27T02:00:32;12.25;;;7.45;;
21661;SDS011;10992;48.170;8.596;2023-05-27T02:03:00;12.35;;;7.47;;
21661;SDS011;10992;48.170;8.596;2023-05-27T02:05:27;11.13;;;7.13;;
21661;SDS011;10992;48.170;8.596;2023-05-27T02:07:54;12.88;;;6.90;;
21661;SDS011;10992;48.170;8.596;2023-05-27T02:10:24;14.60;;;7.20;;
21661;SDS011;10992;48.170;8.596;2023-05-27T02:12:51;10.30;;;6.80;;
21661;SDS011;10992;48.170;8.596;2023-05-27T02:15:19;15.05;;;7.28;;
21661;SDS011;10992;48.170;8.596;2023-05-27T02:17:50;12.60;;;7.57;;
21661;SDS011;10992;48.170;8.596;2023-05-27T02:20:22;20.50;;;7.30;;
21661;SDS011;10992;48.170;8.596;2023-05-27T02:22:50;11.27;;;6.85;;
21661;SDS011;10992;48.170;8.596;2023-05-27T02:25:17;15.30;;;7.82;;
21661;SDS011;10992;48.170;8.596;2023-05-27T02:27:44;13.20;;;6.78;;
21661;SDS011;10992;48.170;8.596;2023-05-27T02:30:14;9.90;;;6.82;;
21661;SDS011;10992;48.170;8.596;2023-05-27T02:32:43;14.02;;;7.10;;
21661;SDS011;10992;48.170;8.596;2023-05-27T02:35:12;8.48;;;6.30;;
21661;SDS011;10992;48.170;8.596;2023-05-27T02:37:41;12.60;;;6.80;;
21661;SDS011;10992;48.170;8.596;2023-05-27T02:40:09;12.38;;;6.57;;
21661;SDS011;10992;48.170;8.596;2023-05-27T02:42:37;11.15;;;6.68;;
21661;SDS011;10992;48.170;8.596;2023-05-27T02:45:04;10.98;;;6.80;;
21661;SDS011;10992;48.170;8.596;2023-05-27T02:47:33;12.25;;;7.18;;
21661;SDS011;10992;48.170;8.596;2023-05-27T02:50:00;15.10;;;6.35;;
21661;SDS011;10992;48.170;8.596;2023-05-27T02:52:28;10.13;;;6.00;;
21661;SDS011;10992;48.170;8.596;2023-05-27T02:54:54;15.00;;;6.88;;
21661;SDS011;10992;48.170;8.596;2023-05-27T02:57:21;10.82;;;6.20;;
21661;SDS011;10992;48.170;8.596;2023-05-27T02:59:48;15.55;;;6.82;;
21661;SDS011;10992;48.170;8.596;2023-05-27T03:02:15;12.15;;;6.60;;
21661;SDS011;10992;48.170;8.596;2023-05-27T03:04:42;12.57;;;6.53;;
21661;SDS011;10992;48.170;8.596;2023-05-27T03:07:10;14.10;;;6.85;;
21661;SDS011;10992;48.170;8.596;2023-05-27T03:09:36;12.40;;;6.25;;
21661;SDS011;10992;48.170;8.596;2023-05-27T03:12:03;11.30;;;6.90;;
21661;SDS011;10992;48.170;8.596;2023-05-27T03:14:32;15.55;;;6.70;;
21661;SDS011;10992;48.170;8.596;2023-05-27T03:16:59;14.80;;;6.53;;
21661;SDS011;10992;48.170;8.596;2023-05-27T03:19:26;10.68;;;6.38;;
21661;SDS011;10992;48.170;8.596;2023-05-27T03:21:53;15.70;;;6.80;;
21661;SDS011;10992;48.170;8.596;2023-05-27T03:24:20;12.45;;;6.22;;
21661;SDS011;10992;48.170;8.596;2023-05-27T03:26:48;12.65;;;6.13;;
21661;SDS011;10992;48.170;8.596;2023-05-27T03:29:15;13.60;;;7.18;;
21661;SDS011;10992;48.170;8.596;2023-05-27T03:31:43;14.20;;;6.60;;
21661;SDS011;10992;48.170;8.596;2023-05-27T03:34:14;13.40;;;6.28;;
21661;SDS011;10992;48.170;8.596;2023-05-27T03:36:43;9.38;;;6.25;;
21661;SDS011;10992;48.170;8.596;2023-05-27T03:39:13;12.55;;;6.65;;
21661;SDS011;10992;48.170;8.596;2023-05-27T03:41:47;12.52;;;6.13;;
21661;SDS011;10992;48.170;8.596;2023-05-27T03:44:14;16.13;;;6.20;;
21661;SDS011;10992;48.170;8.596;2023-05-27T03:46:41;12.25;;;6.22;;
21661;SDS011;10992;48.170;8.596;2023-05-27T03:49:08;16.20;;;6.18;;
21661;SDS011;10992;48.170;8.596;2023-05-27T03:51:36;12.90;;;6.32;;
21661;SDS011;10992;48.170;8.596;2023-05-27T03:54:03;14.27;;;5.53;;
21661;SDS011;10992;48.170;8.596;2023-05-27T03:56:30;13.55;;;6.65;;
21661;SDS011;10992;48.170;8.596;2023-05-27T03:58:58;11.27;;;5.47;;
21661;SDS011;10992;48.170;8.596;2023-05-27T04:01:27;11.57;;;5.60;;
21661;SDS011;10992;48.170;8.596;2023-05-27T04:03:54;12.30;;;6.47;;
21661;SDS011;10992;48.170;8.596;2023-05-27T04:06:21;9.50;;;6.00;;
21661;SDS011;10992;48.170;8.596;2023-05-27T04:08:48;15.32;;;6.00;;
21661;SDS011;10992;48.170;8.596;2023-05-27T04:11:15;12.23;;;5.68;;
21661;SDS011;10992;48.170;8.596;2023-05-27T04:13:43;12.05;;;6.38;;
21661;SDS011;10992;48.170;8.596;2023-05-27T04:16:10;17.13;;;6.43;;
21661;SDS011;10992;48.170;8.596;2023-05-27T04:18:37;14.45;;;6.18;;
21661;SDS011;10992;48.170;8.596;2023-05-27T04:21:04;14.13;;;6.25;;
21661;SDS011;10992;48.170;8.596;2023-05-27T04:23:32;12.52;;;5.47;;
21661;SDS011;10992;48.170;8.596;2023-05-27T04:26:01;11.02;;;5.38;;
21661;SDS011;10992;48.170;8.596;2023-05-27T04:28:32;10.45;;;5.53;;
21661;SDS011;10992;48.170;8.596;2023-05-27T04:31:01;12.55;;;6.45;;
21661;SDS011;10992;48.170;8.596;2023-05-27T04:33:51;15.90;;;6.65;;
21661;SDS011;10992;48.170;8.596;2023-05-27T04:36:20;13.07;;;5.97;;
21661;SDS011;10992;48.170;8.596;2023-05-27T04:39:01;9.25;;;5.00;;
21661;SDS011;10992;48.170;8.596;2023-05-27T04:41:31;12.52;;;5.60;;
21661;SDS011;10992;48.170;8.596;2023-05-27T04:44:06;11.95;;;5.60;;
21661;SDS011;10992;48.170;8.596;2023-05-27T04:46:38;12.93;;;5.38;;
21661;SDS011;10992;48.170;8.596;2023-05-27T04:49:10;12.07;;;5.28;;
21661;SDS011;10992;48.170;8.596;2023-05-27T04:51:37;9.27;;;5.00;;
21661;SDS011;10992;48.170;8.596;2023-05-27T04:54:05;18.13;;;6.15;;
21661;SDS011;10992;48.170;8.596;2023-05-27T04:56:33;13.40;;;5.13;;
21661;SDS011;10992;48.170;8.596;2023-05-27T04:59:00;13.85;;;4.72;;
21661;SDS011;10992;48.170;8.596;2023-05-27T05:01:32;10.23;;;4.35;;
21661;SDS011;10992;48.170;8.596;2023-05-27T05:04:27;10.18;;;5.15;;
21661;SDS011;10992;48.170;8.596;2023-05-27T05:06:59;9.60;;;4.78;;
21661;SDS011;10992;48.170;8.596;2023-05-27T05:09:26;13.52;;;4.60;;
21661;SDS011;10992;48.170;8.596;2023-05-27T05:11:55;9.85;;;4.63;;
21661;SDS011;10992;48.170;8.596;2023-05-27T05:14:22;12.23;;;4.32;;
21661;SDS011;10992;48.170;8.596;2023-05-27T05:16:50;8.90;;;4.13;;
21661;SDS011;10992;48.170;8.596;2023-05-27T05:19:17;6.93;;;3.70;;
21661;SDS011;10992;48.170;8.596;2023-05-27T05:21:45;10.30;;;4.72;;
21661;SDS011;10992;48.170;8.596;2023-05-27T05:24:14;6.28;;;3.88;;
21661;SDS011;10992;48.170;8.596;2023-05-27T05:26:42;8.32;;;4.18;;
21661;SDS011;10992;48.170;8.596;2023-05-27T05:29:10;10.85;;;4.30;;
21661;SDS011;10992;48.170;8.596;2023-05-27T05:31:37;8.93;;;4.68;;
21661;SDS011;10992;48.170;8.596;2023-05-27T05:34:04;10.88;;;3.78;;
21661;SDS011;10992;48.170;8.596;2023-05-27T05:36:34;12.55;;;4.45;;
21661;SDS011;10992;48.170;8.596;2023-05-27T05:39:05;10.80;;;3.85;;
21661;SDS011;10992;48.170;8.596;2023-05-27T05:41:35;8.40;;;3.78;;
21661;SDS011;10992;48.170;8.596;2023-05-27T05:44:02;13.50;;;4.28;;
21661;SDS011;10992;48.170;8.596;2023-05-27T05:46:29;7.63;;;4.07;;
21661;SDS011;10992;48.170;8.596;2023-05-27T05:48:56;10.35;;;4.32;;
21661;SDS011;10992;48.170;8.596;2023-05-27T05:51:32;7.88;;;4.10;;
21661;SDS011;10992;48.170;8.596;2023-05-27T05:53:59;12.20;;;4.05;;
21661;SDS011;10992;48.170;8.596;2023-05-27T05:56:28;10.23;;;4.20;;
21661;SDS011;10992;48.170;8.596;2023-05-27T05:58:55;9.25;;;4.60;;
21661;SDS011;10992;48.170;8.596;2023-05-27T06:01:24;17.83;;;4.78;;
21661;SDS011;10992;48.170;8.596;2023-05-27T06:03:53;11.70;;;4.05;;
21661;SDS011;10992;48.170;8.596;2023-05-27T06:06:29;11.60;;;4.10;;
21661;SDS011;10992;48.170;8.596;2023-05-27T06:09:15;9.27;;;4.03;;
21661;SDS011;10992;48.170;8.596;2023-05-27T06:11:43;8.88;;;4.65;;
21661;SDS011;10992;48.170;8.596;2023-05-27T06:14:12;9.45;;;3.83;;
21661;SDS011;10992;48.170;8.596;2023-05-27T06:16:39;8.05;;;3.65;;
21661;SDS011;10992;48.170;8.596;2023-05-27T06:19:08;9.38;;;4.40;;
21661;SDS011;10992;48.170;8.596;2023-05-27T06:21:35;10.02;;;4.25;;
21661;SDS011;10992;48.170;8.596;2023-05-27T06:24:29;10.40;;;4.13;;
21661;SDS011;10992;48.170;8.596;2023-05-27T06:27:06;7.95;;;3.90;;
21661;SDS011;10992;48.170;8.596;2023-05-27T06:29:34;9.38;;;4.35;;
21661;SDS011;10992;48.170;8.596;2023-05-27T06:32:03;7.60;;;3.85;;
21661;SDS011;10992;48.170;8.596;2023-05-27T06:34:30;10.27;;;4.22;;
21661;SDS011;10992;48.170;8.596;2023-05-27T06:36:58;9.55;;;4.00;;
21661;SDS011;10992;48.170;8.596;2023-05-27T06:39:25;8.70;;;3.90;;
21661;SDS011;10992;48.170;8.596;2023-05-27T06:41:52;8.68;;;4.00;;
21661;SDS011;10992;48.170;8.596;2023-05-27T06:44:57;10.77;;;3.97;;
21661;SDS011;10992;48.170;8.596;2023-05-27T06:47:27;8.15;;;4.07;;
21661;SDS011;10992;48.170;8.596;2023-05-27T06:49:54;8.95;;;4.53;;
21661;SDS011;10992;48.170;8.596;2023-05-27T06:52:21;6.63;;;3.95;;
21661;SDS011;10992;48.170;8.596;2023-05-27T06:55:07;9.82;;;4.22;;
21661;SDS011;10992;48.170;8.596;2023-05-27T06:57:53;7.95;;;3.58;;
21661;SDS011;10992;48.170;8.596;2023-05-27T07:00:27;7.85;;;3.92;;
21661;SDS011;10992;48.170;8.596;2023-05-27T07:03:11;9.07;;;4.60;;
21661;SDS011;10992;48.170;8.596;2023-05-27T07:05:38;11.15;;;4.13;;
21661;SDS011;10992;48.170;8.596;2023-05-27T07:08:05;10.15;;;4.32;;
21661;SDS011;10992;48.170;8.596;2023-05-27T07:10:33;9.70;;;3.90;;
21661;SDS011;10992;48.170;8.596;2023-05-27T07:13:00;9.73;;;4.15;;
21661;SDS011;10992;48.170;8.596;2023-05-27T07:15:38;7.65;;;4.18;;
21661;SDS011;10992;48.170;8.596;2023-05-27T07:18:05;8.73;;;4.10;;
21661;SDS011;10992;48.170;8.596;2023-05-27T07:20:33;8.18;;;4.15;;
21661;SDS011;10992;48.170;8.596;2023-05-27T07:23:03;10.38;;;4.22;;
21661;SDS011;10992;48.170;8.596;2023-05-27T07:25:32;10.65;;;4.47;;
21661;SDS011;10992;48.170;8.596;2023-05-27T07:27:59;9.60;;;4.47;;
21661;SDS011;10992;48.170;8.596;2023-05-27T07:30:26;9.30;;;4.18;;
21661;SDS011;10992;48.170;8.596;2023-05-27T07:32:58;8.13;;;4.50;;
21661;SDS011;10992;48.170;8.596;2023-05-27T07:35:25;9.85;;;4.47;;
21661;SDS011;10992;48.170;8.596;2023-05-27T07:37:53;7.05;;;4.40;;
21661;SDS011;10992;48.170;8.596;2023-05-27T07:40:20;11.32;;;4.57;;
21661;SDS011;10992;48.170;8.596;2023-05-27T07:42:47;9.00;;;4.28;;
21661;SDS011;10992;48.170;8.596;2023-05-27T07:45:14;10.00;;;4.30;;
21661;SDS011;10992;48.170;8.596;2023-05-27T07:47:42;13.52;;;4.43;;
21661;SDS011;10992;48.170;8.596;2023-05-27T07:50:09;6.80;;;4.13;;
21661;SDS011;10992;48.170;8.596;2023-05-27T07:52:36;8.35;;;4.50;;
21661;SDS011;10992;48.170;8.596;2023-05-27T07:55:16;7.53;;;4.40;;
21661;SDS011;10992;48.170;8.596;2023-05-27T07:57:43;11.07;;;4.57;;
21661;SDS011;10992;48.170;8.596;2023-05-27T08:00:11;8.10;;;4.35;;
21661;SDS011;10992;48.170;8.596;2023-05-27T08:02:50;12.07;;;5.30;;
21661;SDS011;10992;48.170;8.596;2023-05-27T08:05:22;11.18;;;4.68;;
21661;SDS011;10992;48.170;8.596;2023-05-27T08:08:06;8.50;;;5.25;;
21661;SDS011;10992;48.170;8.596;2023-05-27T08:10:52;11.13;;;4.63;;
21661;SDS011;10992;48.170;8.596;2023-05-27T08:13:38;6.88;;;4.70;;
21661;SDS011;10992;48.170;8.596;2023-05-27T08:16:31;9.38;;;5.07;;
21661;SDS011;10992;48.170;8.596;2023-05-27T08:19:16;10.57;;;4.78;;
21661;SDS011;10992;48.170;8.596;2023-05-27T08:21:53;12.10;;;4.97;;
21661;SDS011;10992;48.170;8.596;2023-05-27T08:24:54;8.48;;;4.78;;
21661;SDS011;10992;48.170;8.596;2023-05-27T08:27:49;7.97;;;4.72;;
21661;SDS011;10992;48.170;8.596;2023-05-27T08:30:29;9.27;;;4.43;;
21661;SDS011;10992;48.170;8.596;2023-05-27T08:33:09;10.52;;;4.55;;
21661;SDS011;10992;48.170;8.596;2023-05-27T08:35:35;8.80;;;4.35;;
21661;SDS011;10992;48.170;8.596;2023-05-27T08:38:03;10.90;;;4.75;;
21661;SDS011;10992;48.170;8.596;2023-05-27T08:40:35;7.18;;;4.78;;
21661;SDS011;10992;48.170;8.596;2023-05-27T08:43:02;9.45;;;5.28;;
21661;SDS011;10992;48.170;8.596;2023-05-27T08:45:34;9.30;;;4.18;;
21661;SDS011;10992;48.170;8.596;2023-05-27T08:48:01;10.85;;;5.05;;
21661;SDS011;10992;48.170;8.596;2023-05-27T08:50:36;6.68;;;4.68;;
21661;SDS011;10992;48.170;8.596;2023-05-27T08:53:03;10.38;;;4.63;;
21661;SDS011;10992;48.170;8.596;2023-05-27T08:55:32;11.35;;;5.45;;
21661;SDS011;10992;48.170;8.596;2023-05-27T08:58:00;8.93;;;4.82;;
21661;SDS011;10992;48.170;8.596;2023-05-27T09:00:31;11.68;;;4.72;;
21661;SDS011;10992;48.170;8.596;2023-05-27T09:03:08;9.48;;;5.28;;
21661;SDS011;10992;48.170;8.596;2023-05-27T09:05:36;8.90;;;4.40;;
21661;SDS011;10992;48.170;8.596;2023-05-27T09:08:03;9.10;;;4.95;;
21661;SDS011;10992;48.170;8.596;2023-05-27T09:10:40;11.43;;;4.82;;
21661;SDS011;10992;48.170;8.596;2023-05-27T09:13:08;6.22;;;4.72;;
21661;SDS011;10992;48.170;8.596;2023-05-27T09:15:35;9.55;;;5.25;;
21661;SDS011;10992;48.170;8.596;2023-05-27T09:18:04;9.98;;;5.00;;
21661;SDS011;10992;48.170;8.596;2023-05-27T09:20:31;11.50;;;5.53;;
21661;SDS011;10992;48.170;8.596;2023-05-27T09:23:04;7.53;;;4.15;;
21661;SDS011;10992;48.170;8.596;2023-05-27T09:25:31;10.75;;;5.38;;
21661;SDS011;10992;48.170;8.596;2023-05-27T09:27:58;9.18;;;5.00;;
21661;SDS011;10992;48.170;8.596;2023-05-27T09:30:25;9.77;;;4.70;;
21661;SDS011;10992;48.170;8.596;2023-05-27T09:33:00;9.05;;;5.13;;
21661;SDS011;10992;48.170;8.596;2023-05-27T09:35:29;12.45;;;5.43;;
21661;SDS011;10992;48.170;8.596;2023-05-27T09:38:04;10.02;;;5.20;;
21661;SDS011;10992;48.170;8.596;2023-05-27T09:40:35;10.43;;;4.88;;
21661;SDS011;10992;48.170;8.596;2023-05-27T09:43:02;10.70;;;4.90;;
21661;SDS011;10992;48.170;8.596;2023-05-27T09:45:29;8.80;;;4.82;;
21661;SDS011;10992;48.170;8.596;2023-05-27T09:47:57;8.95;;;4.97;;
21661;SDS011;10992;48.170;8.596;2023-05-27T09:50:27;9.50;;;4.88;;
21661;SDS011;10992;48.170;8.596;2023-05-27T09:52:55;10.93;;;5.30;;
21661;SDS011;10992;48.170;8.596;2023-05-27T09:55:36;6.82;;;4.55;;
21661;SDS011;10992;48.170;8.596;2023-05-27T09:58:03;8.77;;;4.78;;
21661;SDS011;10992;48.170;8.596;2023-05-27T10:00:30;7.90;;;4.45;;
21661;SDS011;10992;48.170;8.596;2023-05-27T10:03:00;8.60;;;5.22;;
21661;SDS011;10992;48.170;8.596;2023-05-27T10:05:27;12.30;;;5.53;;
21661;SDS011;10992;48.170;8.596;2023-05-27T10:07:56;9.23;;;5.32;;
21661;SDS011;10992;48.170;8.596;2023-05-27T10:10:38;8.70;;;5.32;;
21661;SDS011;10992;48.170;8.596;2023-05-27T10:13:06;7.63;;;4.90;;
21661;SDS011;10992;48.170;8.596;2023-05-27T10:15:34;8.77;;;5.03;;
21661;SDS011;10992;48.170;8.596;2023-05-27T10:18:05;9.00;;;5.40;;
21661;SDS011;10992;48.170;8.596;2023-05-27T10:23:13;11.13;;;5.25;;
21661;SDS011;10992;48.170;8.596;2023-05-27T10:26:01;9.73;;;5.30;;
21661;SDS011;10992;48.170;8.596;2023-05-27T10:28:33;8.40;;;5.35;;
21661;SDS011;10992;48.170;8.596;2023-05-27T10:31:09;8.85;;;5.40;;
21661;SDS011;10992;48.170;8.596;2023-05-27T10:33:39;10.50;;;5.72;;
21661;SDS011;10992;48.170;8.596;2023-05-27T10:36:16;12.40;;;5.53;;
21661;SDS011;10992;48.170;8.596;2023-05-27T10:38:54;8.57;;;5.18;;
21661;SDS011;10992;48.170;8.596;2023-05-27T10:41:22;9.13;;;5.35;;
21661;SDS011;10992;48.170;8.596;2023-05-27T10:43:55;10.45;;;5.80;;
21661;SDS011;10992;48.170;8.596;2023-05-27T10:46:23;8.27;;;5.15;;
21661;SDS011;10992;48.170;8.596;2023-05-27T10:48:51;10.60;;;5.43;;
21661;SDS011;10992;48.170;8.596;2023-05-27T10:51:18;12.73;;;5.25;;
21661;SDS011;10992;48.170;8.596;2023-05-27T10:53:45;8.20;;;5.00;;
21661;SDS011;10992;48.170;8.596;2023-05-27T10:56:19;10.18;;;5.15;;
21661;SDS011;10992;48.170;8.596;2023-05-27T10:58:47;10.48;;;5.45;;
21661;SDS011;10992;48.170;8.596;2023-05-27T11:01:15;8.88;;;4.97;;
21661;SDS011;10992;48.170;8.596;2023-05-27T11:03:44;9.77;;;5.40;;
21661;SDS011;10992;48.170;8.596;2023-05-27T11:06:12;9.40;;;4.93;;
21661;SDS011;10992;48.170;8.596;2023-05-27T11:08:41;9.38;;;5.25;;
21661;SDS011;10992;48.170;8.596;2023-05-27T11:11:09;10.18;;;5.72;;
21661;SDS011;10992;48.170;8.596;2023-05-27T11:13:41;9.32;;;5.07;;
21661;SDS011;10992;48.170;8.596;2023-05-27T11:16:13;8.07;;;4.82;;
21661;SDS011;10992;48.170;8.596;2023-05-27T11:21:09;7.80;;;5.07;;
21661;SDS011;10992;48.170;8.596;2023-05-27T11:23:40;9.23;;;4.78;;
21661;SDS011;10992;48.170;8.596;2023-05-27T11:28:45;8.55;;;5.38;;
21661;SDS011;10992;48.170;8.596;2023-05-27T11:31:32;9.27;;;4.97;;
21661;SDS011;10992;48.170;8.596;2023-05-27T11:33:59;7.35;;;5.03;;
21661;SDS011;10992;48.170;8.596;2023-05-27T11:36:27;10.35;;;4.75;;
21661;SDS011;10992;48.170;8.596;2023-05-27T11:38:57;10.05;;;5.40;;
21661;SDS011;10992;48.170;8.596;2023-05-27T11:41:29;8.38;;;4.93;;
21661;SDS011;10992;48.170;8.596;2023-05-27T11:43:57;8.82;;;5.18;;
21661;SDS011;10992;48.170;8.596;2023-05-27T11:46:33;8.43;;;4.95;;
21661;SDS011;10992;48.170;8.596;2023-05-27T11:49:02;10.30;;;5.28;;
21661;SDS011;10992;48.170;8.596;2023-05-27T11:51:34;7.05;;;4.68;;
21661;SDS011;10992;48.170;8.596;2023-05-27T11:54:03;7.25;;;4.82;;
21661;SDS011;10992;48.170;8.596;2023-05-27T11:56:30;13.07;;;5.68;;
21661;SDS011;10992;48.170;8.596;2023-05-27T11:58:58;8.70;;;4.88;;
21661;SDS011;10992;48.170;8.596;2023-05-27T12:01:25;8.57;;;5.00;;
21661;SDS011;10992;48.170;8.596;2023-05-27T12:03:52;11.75;;;5.53;;
21661;SDS011;10992;48.170;8.596;2023-05-27T12:06:19;8.65;;;5.43;;
21661;SDS011;10992;48.170;8.596;2023-05-27T12:08:46;7.72;;;5.13;;
21661;SDS011;10992;48.170;8.596;2023-05-27T12:11:13;8.93;;;5.35;;
21661;SDS011;10992;48.170;8.596;2023-05-27T12:13:40;7.97;;;5.15;;
21661;SDS011;10992;48.170;8.596;2023-05-27T12:16:07;6.00;;;4.60;;
21661;SDS011;10992;48.170;8.596;2023-05-27T12:18:34;8.90;;;5.65;;
21661;SDS011;10992;48.170;8.596;2023-05-27T12:21:01;7.93;;;5.05;;
21661;SDS011;10992;48.170;8.596;2023-05-27T12:23:28;8.23;;;4.95;;
21661;SDS011;10992;48.170;8.596;2023-05-27T12:25:55;9.80;;;4.85;;
21661;SDS011;10992;48.170;8.596;2023-05-27T12:28:22;9.20;;;5.45;;
21661;SDS011;10992;48.170;8.596;2023-05-27T12:30:49;14.00;;;5.65;;
21661;SDS011;10992;48.170;8.596;2023-05-27T12:33:16;13.30;;;6.25;;
21661;SDS011;10992;48.170;8.596;2023-05-27T12:35:43;7.55;;;5.25;;
21661;SDS011;10992;48.170;8.596;2023-05-27T12:38:10;8.18;;;5.13;;
21661;SDS011;10992;48.170;8.596;2023-05-27T12:40:37;14.25;;;5.97;;
21661;SDS011;10992;48.170;8.596;2023-05-27T12:43:04;5.85;;;4.68;;
21661;SDS011;10992;48.170;8.596;2023-05-27T12:45:31;7.68;;;5.13;;
21661;SDS011;10992;48.170;8.596;2023-05-27T12:47:58;8.77;;;4.93;;
21661;SDS011;10992;48.170;8.596;2023-05-27T12:50:26;9.43;;;5.35;;
21661;SDS011;10992;48.170;8.596;2023-05-27T12:52:53;6.72;;;5.13;;
21661;SDS011;10992;48.170;8.596;2023-05-27T12:55:20;7.43;;;5.10;;
21661;SDS011;10992;48.170;8.596;2023-05-27T12:57:48;11.90;;;5.63;;
21661;SDS011;10992;48.170;8.596;2023-05-27T13:00:16;7.45;;;5.00;;
21661;SDS011;10992;48.170;8.596;2023-05-27T13:02:44;7.47;;;5.03;;
21661;SDS011;10992;48.170;8.596;2023-05-27T13:05:13;7.20;;;5.10;;
21661;SDS011;10992;48.170;8.596;2023-05-27T13:07:51;8.20;;;4.80;;
21661;SDS011;10992;48.170;8.596;2023-05-27T13:10:23;11.65;;;5.47;;
21661;SDS011;10992;48.170;8.596;2023-05-27T13:12:50;7.00;;;5.07;;
21661;SDS011;10992;48.170;8.596;2023-05-27T13:15:18;8.27;;;5.22;;
21661;SDS011;10992;48.170;8.596;2023-05-27T13:17:45;6.38;;;5.07;;
21661;SDS011;10992;48.170;8.596;2023-05-27T13:20:16;8.40;;;5.10;;
21661;SDS011;10992;48.170;8.596;2023-05-27T13:22:43;6.65;;;5.25;;
21661;SDS011;10992;48.170;8.596;2023-05-27T13:25:12;8.13;;;5.10;;
21661;SDS011;10992;48.170;8.596;2023-05-27T13:27:39;9.43;;;5.70;;
21661;SDS011;10992;48.170;8.596;2023-05-27T13:30:14;7.75;;;5.00;;
21661;SDS011;10992;48.170;8.596;2023-05-27T13:32:42;9.07;;;6.07;;
21661;SDS011;10992;48.170;8.596;2023-05-27T13:35:10;7.10;;;4.90;;
21661;SDS011;10992;48.170;8.596;2023-05-27T13:37:38;9.85;;;5.43;;
21661;SDS011;10992;48.170;8.596;2023-05-27T13:40:06;6.32;;;4.80;;
21661;SDS011;10992;48.170;8.596;2023-05-27T13:42:34;9.85;;;5.30;;
21661;SDS011;10992;48.170;8.596;2023-05-27T13:45:01;8.00;;;5.05;;
21661;SDS011;10992;48.170;8.596;2023-05-27T13:47:29;9.55;;;5.35;;
21661;SDS011;10992;48.170;8.596;2023-05-27T13:49:56;8.07;;;5.38;;
21661;SDS011;10992;48.170;8.596;2023-05-27T13:52:23;8.40;;;5.20;;
21661;SDS011;10992;48.170;8.596;2023-05-27T13:54:50;10.43;;;6.03;;
21661;SDS011;10992;48.170;8.596;2023-05-27T13:57:17;7.22;;;4.88;;
21661;SDS011;10992;48.170;8.596;2023-05-27T13:59:44;8.35;;;5.25;;
21661;SDS011;10992;48.170;8.596;2023-05-27T14:02:11;8.57;;;5.15;;
21661;SDS011;10992;48.170;8.596;2023-05-27T14:04:38;7.47;;;5.35;;
21661;SDS011;10992;48.170;8.596;2023-05-27T14:07:04;8.05;;;5.15;;
21661;SDS011;10992;48.170;8.596;2023-05-27T14:09:31;8.27;;;4.95;;
21661;SDS011;10992;48.170;8.596;2023-05-27T14:11:58;8.75;;;5.55;;
21661;SDS011;10992;48.170;8.596;2023-05-27T14:14:26;6.78;;;4.85;;
21661;SDS011;10992;48.170;8.596;2023-05-27T14:16:53;7.75;;;5.03;;
21661;SDS011;10992;48.170;8.596;2023-05-27T14:19:20;8.23;;;4.85;;
21661;SDS011;10992;48.170;8.596;2023-05-27T14:21:47;8.30;;;5.20;;
21661;SDS011;10992;48.170;8.596;2023-05-27T14:24:14;11.27;;;5.95;;
21661;SDS011;10992;48.170;8.596;2023-05-27T14:26:41;8.30;;;5.05;;
21661;SDS011;10992;48.170;8.596;2023-05-27T14:29:10;8.77;;;5.50;;
21661;SDS011;10992;48.170;8.596;2023-05-27T14:31:37;8.65;;;5.10;;
21661;SDS011;10992;48.170;8.596;2023-05-27T14:34:04;7.47;;;5.28;;
21661;SDS011;10992;48.170;8.596;2023-05-27T14:36:31;7.55;;;5.05;;
21661;SDS011;10992;48.170;8.596;2023-05-27T14:38:57;8.40;;;4.90;;
21661;SDS011;10992;48.170;8.596;2023-05-27T14:41:25;6.47;;;4.57;;
21661;SDS011;10992;48.170;8.596;2023-05-27T14:43:53;8.75;;;5.05;;
21661;SDS011;10992;48.170;8.596;2023-05-27T14:46:23;6.78;;;4.82;;
21661;SDS011;10992;48.170;8.596;2023-05-27T14:48:50;8.00;;;5.10;;
21661;SDS011;10992;48.170;8.596;2023-05-27T14:51:18;7.97;;;5.13;;
21661;SDS011;10992;48.170;8.596;2023-05-27T14:53:45;9.13;;;5.35;;
21661;SDS011;10992;48.170;8.596;2023-05-27T14:56:12;8.27;;;4.95;;
21661;SDS011;10992;48.170;8.596;2023-05-27T14:58:39;10.90;;;5.72;;
21661;SDS011;10992;48.170;8.596;2023-05-27T15:01:06;7.65;;;5.22;;
21661;SDS011;10992;48.170;8.596;2023-05-27T15:03:36;8.32;;;5.45;;
21661;SDS011;10992;48.170;8.596;2023-05-27T15:06:03;8.77;;;5.68;;
21661;SDS011;10992;48.170;8.596;2023-05-27T15:08:30;9.75;;;5.30;;